Time;durP1;ratioP1;P1;durP2;ratioP2;P2;SDS_P1;SDS_P2;PMS_P1;PMS_P2;Temp;Humidity;BMP_temperature;BMP_pressure;BME280_temperature;BME280_humidity;BME280_pressure;Samples;Min_cycle;Max_cycle;Signal;HPM_P1;HPM_P2
2022/02/08 00:02:29;;;;;;;4.32;2.10;;;;;;;10.88;44.69;102354.34;5009949;28;20042;-80
2022/02/08 00:04:58;;;;;;;5.25;1.50;;;;;;;10.90;45.03;102352.44;5008224;28;20085;-80
2022/02/08 00:07:27;;;;;;;6.95;1.65;;;;;;;10.91;44.75;102349.66;5009505;28;20059;-80
2022/02/08 00:09:53;;;;;;;7.20;1.70;;;;;;;10.93;44.76;102352.31;5006820;28;20285;-80
2022/02/08 00:12:20;;;;;;;7.85;1.95;;;;;;;10.94;44.64;102349.53;5009747;28;20049;-80
2022/02/08 00:14:48;;;;;;;4.32;1.58;;;;;;;10.95;44.74;102350.44;5007315;28;20053;-80
2022/02/08 00:17:14;;;;;;;4.90;1.80;;;;;;;10.96;44.73;102354.88;5009018;28;20060;-80
2022/02/08 00:19:41;;;;;;;5.50;1.60;;;;;;;10.96;44.91;102350.34;5002876;28;20054;-80
2022/02/08 00:22:07;;;;;;;5.88;1.70;;;;;;;10.97;44.78;102348.50;4990218;28;20101;-81
2022/02/08 00:24:34;;;;;;;4.88;1.45;;;;;;;10.97;44.69;102352.09;4987797;28;20478;-78
2022/02/08 00:27:01;;;;;;;5.45;1.55;;;;;;;10.99;44.88;102347.50;5005934;28;20093;-78
2022/02/08 00:29:28;;;;;;;7.38;1.65;;;;;;;10.99;45.05;102336.63;4990551;28;20086;-80
2022/02/08 00:31:54;;;;;;;6.60;1.90;;;;;;;11.01;44.95;102342.00;4991257;28;20050;-80
2022/02/08 00:34:21;;;;;;;5.13;2.10;;;;;;;11.04;44.89;102344.56;4992061;28;20449;-79
2022/02/08 00:36:47;;;;;;;5.70;1.83;;;;;;;11.02;45.48;102341.94;4990977;28;20053;-79
2022/02/08 00:39:14;;;;;;;5.65;2.10;;;;;;;11.02;45.10;102333.78;4989433;28;20130;-79
2022/02/08 00:41:41;;;;;;;6.30;2.30;;;;;;;11.03;45.31;102331.94;5008531;28;20121;-80
2022/02/08 00:44:13;;;;;;;8.95;2.03;;;;;;;11.01;45.42;102321.13;4992739;28;20050;-80
2022/02/08 00:46:47;;;;;;;7.03;1.92;;;;;;;11.01;45.53;102315.72;4990468;28;20046;-80
2022/02/08 00:49:14;;;;;;;6.97;2.03;;;;;;;11.06;45.57;102321.81;4986378;28;20137;-80
2022/02/08 00:51:52;;;;;;;7.18;2.13;;;;;;;11.06;45.78;102321.81;5012606;28;20132;-80
2022/02/08 00:54:19;;;;;;;5.10;1.85;;;;;;;11.07;45.80;102325.41;5009774;28;20125;-80
2022/02/08 00:56:46;;;;;;;4.45;2.20;;;;;;;11.08;45.73;102327.16;5011624;28;20058;-79
2022/02/08 00:59:12;;;;;;;4.78;1.70;;;;;;;11.07;45.80;102330.84;5011489;28;20062;-80
2022/02/08 01:01:40;;;;;;;6.75;2.28;;;;;;;11.08;45.99;102335.31;5010968;28;20549;-80
2022/02/08 01:04:08;;;;;;;8.80;2.42;;;;;;;11.10;45.87;102335.25;5010613;28;20189;-80
2022/02/08 01:06:40;;;;;;;5.82;1.90;;;;;;;11.11;45.94;102342.47;5011816;28;20145;-80
2022/02/08 01:09:15;;;;;;;7.18;2.08;;;;;;;11.10;45.92;102335.25;5010577;28;20567;-80
2022/02/08 01:11:45;;;;;;;8.70;2.38;;;;;;;11.12;46.11;102338.81;5012037;28;20054;-80
2022/02/08 01:14:13;;;;;;;4.05;2.10;;;;;;;11.13;46.39;102341.41;5010260;28;20061;-80
2022/02/08 01:16:40;;;;;;;5.63;2.17;;;;;;;11.15;46.27;102333.22;5009888;28;20132;-80
2022/02/08 01:19:07;;;;;;;5.68;2.08;;;;;;;11.12;46.42;102339.66;5012022;28;20050;-80
2022/02/08 01:21:33;;;;;;;5.28;2.08;;;;;;;11.11;46.54;102340.63;5010347;28;20121;-81
2022/02/08 01:24:01;;;;;;;6.90;2.17;;;;;;;11.10;46.67;102341.59;5011619;28;20140;-80
2022/02/08 01:26:29;;;;;;;7.63;2.13;;;;;;;11.08;46.87;102338.03;5009575;28;20053;-80
2022/02/08 01:29:17;;;;;;;7.10;1.90;;;;;;;11.07;46.82;102342.59;5010516;28;20138;-80
2022/02/08 01:31:46;;;;;;;4.68;1.90;;;;;;;11.06;46.88;102343.53;5007614;28;20077;-80
2022/02/08 01:34:35;;;;;;;6.63;1.92;;;;;;;11.07;47.02;102348.03;5009456;28;20046;-81
2022/02/08 01:39:44;;;;;;;8.27;1.98;;;;;;;11.07;47.24;102337.16;5010626;28;20056;-80
2022/02/08 01:47:44;;;;;;;6.53;1.90;;;;;;;11.07;47.33;102333.56;5011559;28;20131;-80
2022/02/08 01:50:12;;;;;;;5.22;1.60;;;;;;;11.10;47.39;102340.69;4999571;28;20398;-81
2022/02/08 01:52:41;;;;;;;5.00;1.80;;;;;;;11.12;47.54;102334.22;5011630;28;20101;-82
2022/02/08 01:55:11;;;;;;;8.50;1.83;;;;;;;11.13;47.58;102337.81;5009615;28;20065;-82
2022/02/08 01:57:40;;;;;;;4.57;1.70;;;;;;;11.11;47.55;102337.91;5010680;28;20061;-82
2022/02/08 02:00:09;;;;;;;5.28;1.90;;;;;;;11.12;47.59;102331.50;5009312;28;20080;-82
2022/02/08 02:02:35;;;;;;;4.43;1.70;;;;;;;11.11;47.64;102335.19;5011532;28;20121;-82
2022/02/08 02:05:03;;;;;;;4.72;1.70;;;;;;;11.10;47.30;102336.16;5017379;28;20481;-82
2022/02/08 02:07:29;;;;;;;4.18;1.55;;;;;;;11.10;47.65;102329.81;5012222;28;20435;-82
2022/02/08 02:10:01;;;;;;;4.28;1.67;;;;;;;11.07;47.87;102329.00;5008877;28;20485;-81
2022/02/08 02:12:28;;;;;;;4.10;1.80;;;;;;;11.07;47.73;102319.97;5010605;28;20485;-82
2022/02/08 02:14:58;;;;;;;3.90;1.60;;;;;;;11.06;47.89;102319.09;5009065;28;20060;-82
2022/02/08 02:17:25;;;;;;;6.63;1.48;;;;;;;11.07;48.03;102322.69;5010872;28;20078;-81
2022/02/08 02:19:52;;;;;;;4.80;1.80;;;;;;;11.07;48.08;102309.09;5008980;28;20141;-81
2022/02/08 02:22:18;;;;;;;4.15;1.60;;;;;;;11.09;48.05;102314.47;5009842;28;20050;-82
2022/02/08 02:24:45;;;;;;;5.10;2.17;;;;;;;11.07;48.13;102309.97;5008766;28;20483;-81
2022/02/08 02:27:11;;;;;;;3.70;1.73;;;;;;;11.07;47.95;102309.97;5009541;28;20111;-81
2022/02/08 02:29:38;;;;;;;5.15;1.65;;;;;;;11.06;48.09;102310.94;5009455;28;20167;-82
2022/02/08 02:32:05;;;;;;;4.03;1.63;;;;;;;11.08;48.08;102310.88;5009388;28;20046;-81
2022/02/08 02:34:34;;;;;;;5.55;1.80;;;;;;;11.07;47.98;102306.38;5007184;28;20049;-81
2022/02/08 02:37:02;;;;;;;4.10;1.60;;;;;;;11.08;48.05;102300.00;5010823;28;20408;-82
2022/02/08 02:39:28;;;;;;;3.92;1.90;;;;;;;11.10;48.37;102302.66;5007989;28;20054;-82
2022/02/08 02:41:55;;;;;;;5.28;1.52;;;;;;;11.09;48.11;102290.88;5009880;28;20052;-83
2022/02/08 02:44:24;;;;;;;5.50;1.92;;;;;;;11.09;48.27;102280.03;4984609;28;20078;-83
2022/02/08 02:46:53;;;;;;;3.42;1.67;;;;;;;11.10;48.26;102287.22;5008752;28;20049;-83
2022/02/08 02:49:26;;;;;;;4.07;1.70;;;;;;;11.17;48.64;102285.09;5007432;28;20092;-83
2022/02/08 02:51:57;;;;;;;4.63;1.73;;;;;;;11.10;48.33;102281.78;5009899;28;20137;-83
2022/02/08 02:54:23;;;;;;;4.63;1.88;;;;;;;11.10;48.68;102287.22;5008141;28;20417;-83
2022/02/08 02:56:50;;;;;;;4.43;1.67;;;;;;;11.12;48.64;102284.44;5014648;28;20136;-83
2022/02/08 02:59:19;;;;;;;5.03;1.80;;;;;;;11.10;48.68;102275.47;5008059;28;20253;-83
2022/02/08 03:04:41;;;;;;;;;;;;;;;10.87;49.42;102280.09;5009475;28;20053;-83
2022/02/08 03:20:49;;;;;;;3.67;1.70;;;;;;;11.07;49.69;102280.09;4995385;28;20301;-84
2022/02/08 03:23:17;;;;;;;5.80;1.70;;;;;;;11.05;49.07;102290.13;5005552;28;20050;-83
2022/02/08 03:25:43;;;;;;;4.88;2.10;;;;;;;11.07;49.35;102284.63;4987298;28;20050;-83
2022/02/08 03:28:10;;;;;;;6.15;1.80;;;;;;;11.06;49.45;102282.88;4989406;28;20133;-83
2022/02/08 03:30:37;;;;;;;5.55;1.60;;;;;;;11.06;49.65;102285.59;4988021;28;20050;-83
2022/02/08 03:33:04;;;;;;;5.15;1.95;;;;;;;11.07;49.56;102277.38;4989342;28;20074;-83
2022/02/08 03:35:30;;;;;;;5.55;2.33;;;;;;;11.10;49.82;102278.19;4979393;28;20050;-83
2022/02/08 03:38:01;;;;;;;4.60;2.28;;;;;;;11.12;49.57;102284.44;4988437;28;20058;-83
2022/02/08 03:40:51;;;;;;;4.20;2.10;;;;;;;11.13;49.90;102280.75;4985912;28;20305;-83
2022/02/08 03:45:53;;;;;;;6.35;2.10;;;;;;;11.13;49.86;102284.34;5001893;28;20128;-83
2022/02/08 03:48:24;;;;;;;4.38;1.65;;;;;;;11.16;50.06;102286.03;5009989;28;20484;-83
2022/02/08 03:50:54;;;;;;;4.28;2.22;;;;;;;11.17;49.76;102287.81;5007253;28;20054;-83
2022/02/08 03:53:23;;;;;;;5.10;2.20;;;;;;;11.20;50.27;102288.53;5009993;28;20552;-83
2022/02/08 03:55:50;;;;;;;5.28;1.95;;;;;;;11.21;50.05;102290.31;5006056;28;20145;-82
2022/02/08 03:58:17;;;;;;;3.95;2.03;;;;;;;11.20;49.90;102288.53;5008630;28;20125;-82
2022/02/08 04:01:12;;;;;;;4.40;1.90;;;;;;;11.24;50.02;102290.19;5008996;28;20138;-83
2022/02/08 04:03:47;;;;;;;4.43;1.83;;;;;;;11.23;50.09;102298.41;5012301;28;20505;-82
2022/02/08 04:06:15;;;;;;;3.63;2.05;;;;;;;11.28;50.28;102296.38;5010678;28;20054;-83
2022/02/08 04:08:41;;;;;;;3.85;1.92;;;;;;;11.28;50.37;102290.94;5012205;28;20145;-83
2022/02/08 04:11:09;;;;;;;3.80;2.15;;;;;;;11.29;50.56;102295.38;5008245;28;20058;-83
2022/02/08 04:13:50;;;;;;;3.30;1.90;;;;;;;11.30;50.62;102298.03;5013721;28;20134;-82
2022/02/08 04:16:28;;;;;;;4.97;2.08;;;;;;;11.29;50.73;102295.38;5004046;28;20050;-83
2022/02/08 04:19:48;;;;;;;5.55;2.20;;;;;;;11.30;50.62;102298.03;5011946;28;20128;-83
2022/02/08 04:33:30;;;;;;;6.72;2.80;;;;;;;11.33;50.76;102305.19;5013394;28;20104;-83
2022/02/08 04:36:05;;;;;;;6.30;3.30;;;;;;;11.32;50.86;102306.13;5005436;28;20878;-83
2022/02/08 04:38:53;;;;;;;6.53;3.10;;;;;;;11.35;50.84;102301.44;5012291;28;20489;-83
2022/02/08 04:41:28;;;;;;;5.55;2.60;;;;;;;11.35;51.19;102298.72;5008836;28;20267;-83
2022/02/08 04:47:13;;;;;;;6.38;2.90;;;;;;;11.39;50.93;102304.88;4994495;28;20068;-83
2022/02/08 04:49:37;;;;;;;4.55;2.70;;;;;;;11.41;51.11;102301.13;5011580;28;20409;-83
2022/02/08 04:52:06;;;;;;;4.40;2.80;;;;;;;11.44;51.28;102309.16;5012834;28;20460;-83
2022/02/08 04:54:48;;;;;;;4.88;2.92;;;;;;;11.44;51.21;102306.44;5011667;28;20053;-83
2022/02/08 04:57:29;;;;;;;5.00;3.08;;;;;;;11.47;51.45;102305.41;5011651;28;20495;-83
2022/02/08 05:44:02;;;;;;;5.63;2.42;;;;;;;11.59;52.01;102303.94;5000423;28;20137;-84
2022/02/08 05:49:07;;;;;;;4.45;2.42;;;;;;;11.59;52.73;102303.94;5012953;28;20053;-84
2022/02/08 05:54:17;;;;;;;5.13;2.40;;;;;;;11.59;52.60;102301.22;5009836;28;20049;-83
2022/02/08 05:56:52;;;;;;;4.28;2.75;;;;;;;11.64;52.42;102307.31;5010990;28;20132;-84
2022/02/08 05:59:20;;;;;;;5.28;2.90;;;;;;;11.65;52.66;102301.81;5009542;28;20104;-84
2022/02/08 06:01:47;;;;;;;3.67;2.42;;;;;;;11.65;52.68;102298.19;5009603;28;20046;-84
2022/02/08 06:04:14;;;;;;;4.80;2.65;;;;;;;11.67;52.63;102302.63;5005303;28;20127;-84
2022/02/08 06:06:41;;;;;;;3.97;2.55;;;;;;;11.67;52.56;102297.19;5009206;28;20190;-83
2022/02/08 06:09:20;;;;;;;3.70;2.42;;;;;;;11.71;53.02;102290.63;5003829;28;20052;-83
2022/02/08 06:11:48;;;;;;;5.28;2.63;;;;;;;11.72;52.62;102305.09;5005198;28;20140;-85
2022/02/08 06:14:23;;;;;;;3.83;2.72;;;;;;;11.74;52.62;102289.59;5008514;28;20042;-85
2022/02/08 06:16:50;;;;;;;4.97;2.78;;;;;;;11.73;52.74;102294.16;5009256;28;20156;-88
2022/02/08 06:19:17;;;;;;;4.55;2.63;;;;;;;11.75;52.79;102291.41;5009246;28;20057;-87
2022/02/08 06:21:44;;;;;;;4.75;2.90;;;;;;;11.73;52.77;102279.66;5012741;28;20116;-87
2022/02/08 06:24:13;;;;;;;4.65;2.45;;;;;;;11.73;52.91;102294.16;5006026;28;20049;-88
2022/02/08 06:26:40;;;;;;;3.67;2.40;;;;;;;11.72;53.10;102291.50;5009696;28;20050;-88
2022/02/08 06:29:21;;;;;;;4.65;2.40;;;;;;;11.72;53.16;102291.50;5006234;28;20082;-88
2022/02/08 06:31:48;;;;;;;3.40;2.40;;;;;;;11.72;53.14;102286.94;5009726;28;20149;-88
2022/02/08 06:34:21;;;;;;;4.75;2.53;;;;;;;11.73;52.96;102286.00;5001497;28;20042;-87
2022/02/08 06:36:55;;;;;;;3.38;2.28;;;;;;;11.76;52.84;102280.44;5005848;28;20509;-86
2022/02/08 06:39:22;;;;;;;4.20;2.70;;;;;;;11.75;53.10;102277.78;5007174;28;20050;-84
2022/02/08 06:41:51;;;;;;;4.03;2.53;;;;;;;11.77;53.54;102276.75;5007204;28;20140;-84
2022/02/08 06:44:17;;;;;;;3.38;2.38;;;;;;;11.76;52.95;102283.16;4982816;28;21003;-83
2022/02/08 06:46:47;;;;;;;4.20;2.50;;;;;;;11.78;53.37;102281.22;5021575;28;20058;-84
2022/02/08 06:49:14;;;;;;;4.93;2.33;;;;;;;11.78;53.41;102289.38;5007533;28;20054;-83
2022/02/08 06:51:43;;;;;;;4.18;2.50;;;;;;;11.80;53.16;102295.63;5008247;28;20046;-85
2022/02/08 06:54:09;;;;;;;4.20;2.67;;;;;;;11.81;53.22;102304.69;5006422;28;20046;-84
2022/02/08 06:56:36;;;;;;;3.80;2.33;;;;;;;11.82;53.35;102296.47;5008371;28;20080;-83
2022/02/08 06:59:07;;;;;;;3.97;2.40;;;;;;;11.81;53.77;102300.13;5009421;28;20113;-84
2022/02/08 07:01:36;;;;;;;6.00;3.10;;;;;;;11.85;53.36;102305.44;5005843;28;20486;-83
2022/02/08 07:04:06;;;;;;;4.68;2.40;;;;;;;11.85;53.72;102294.56;5003416;28;20251;-86
2022/02/08 07:06:33;;;;;;;3.75;2.30;;;;;;;11.86;53.68;102296.31;4999039;28;20042;-81
2022/02/08 07:09:03;;;;;;;3.72;2.42;;;;;;;11.87;53.55;102304.38;5004299;28;20049;-80
2022/02/08 07:11:30;;;;;;;3.65;2.10;;;;;;;11.89;53.72;102304.31;5003216;28;20417;-80
2022/02/08 07:13:58;;;;;;;3.85;2.30;;;;;;;11.89;53.54;102318.81;4999959;28;20736;-80
2022/02/08 07:16:25;;;;;;;4.50;2.25;;;;;;;11.90;53.56;102304.25;5003967;28;20493;-80
2022/02/08 07:18:51;;;;;;;4.13;2.47;;;;;;;11.91;54.02;102303.28;5007285;28;20057;-79
2022/02/08 07:21:18;;;;;;;3.22;2.20;;;;;;;11.92;53.59;102313.22;5008507;28;20092;-79
2022/02/08 07:23:45;;;;;;;3.30;2.13;;;;;;;11.95;53.64;102317.59;5003999;28;20511;-80
2022/02/08 07:26:11;;;;;;;3.22;1.98;;;;;;;11.95;54.04;102314.88;5004326;28;20787;-78
2022/02/08 07:28:43;;;;;;;4.65;2.10;;;;;;;11.94;53.92;102314.00;5009450;28;20049;-81
2022/02/08 07:31:22;;;;;;;3.40;2.08;;;;;;;11.98;54.03;102315.63;5009942;28;20333;-80
2022/02/08 07:34:06;;;;;;;5.10;2.58;;;;;;;11.96;53.88;102322.97;5009239;28;20104;-81
2022/02/08 07:39:09;;;;;;;4.17;2.53;;;;;;;11.98;53.79;102317.47;5008518;28;20065;-79
2022/02/08 07:41:36;;;;;;;4.20;2.70;;;;;;;12.00;53.85;102324.63;5007471;28;20376;-80
2022/02/08 07:44:08;;;;;;;5.32;2.67;;;;;;;12.05;54.11;102319.81;5012481;28;20100;-79
2022/02/08 07:46:39;;;;;;;3.85;2.63;;;;;;;12.04;54.06;102323.50;5010274;28;20086;-80
2022/02/08 07:49:06;;;;;;;4.10;2.50;;;;;;;12.06;53.97;102326.13;5007841;28;20468;-81
2022/02/08 07:51:36;;;;;;;4.03;2.67;;;;;;;12.09;53.85;102328.72;5001066;28;20056;-79
2022/02/08 07:54:04;;;;;;;3.90;2.63;;;;;;;12.10;53.94;102333.22;4997742;28;20042;-80
2022/02/08 07:56:31;;;;;;;4.60;2.70;;;;;;;12.12;54.08;102331.28;5025635;28;20502;-81
2022/02/08 07:59:00;;;;;;;4.13;2.55;;;;;;;12.13;54.00;102327.59;5008358;28;20136;-79
2022/02/08 08:01:27;;;;;;;5.63;2.95;;;;;;;12.15;54.06;102322.97;5007945;28;20434;-80
2022/02/08 08:03:53;;;;;;;4.22;2.75;;;;;;;12.15;54.09;102326.56;5007341;28;20154;-80
2022/02/08 08:06:20;;;;;;;5.10;3.10;;;;;;;12.17;53.86;102319.22;5008067;28;20138;-80
2022/02/08 08:08:47;;;;;;;4.32;3.13;;;;;;;12.19;54.27;102322.72;5007219;28;20089;-78
2022/02/08 08:11:20;;;;;;;5.15;3.00;;;;;;;12.20;54.00;102319.03;5007845;28;20112;-79
2022/02/08 08:13:52;;;;;;;4.57;2.92;;;;;;;12.21;54.14;102311.75;5008438;28;20081;-79
2022/02/08 08:16:22;;;;;;;5.23;3.17;;;;;;;12.22;54.26;102313.53;5006649;28;20077;-79
2022/02/08 08:18:58;;;;;;;4.80;2.90;;;;;;;12.23;54.54;102320.72;5007291;28;20300;-79
2022/02/08 08:21:26;;;;;;;4.35;2.80;;;;;;;12.24;54.13;102319.78;4997744;28;20047;-79
2022/02/08 08:23:53;;;;;;;4.78;3.13;;;;;;;12.27;54.23;102311.44;5012023;28;20077;-78
2022/02/08 08:26:21;;;;;;;4.65;2.75;;;;;;;12.29;53.99;102314.97;5007068;28;20481;-79
2022/02/08 08:28:48;;;;;;;4.25;2.95;;;;;;;12.30;54.07;102314.00;5014753;28;20081;-81
2022/02/08 08:31:15;;;;;;;5.28;3.17;;;;;;;12.33;53.98;102319.31;5008558;28;20057;-80
2022/02/08 08:34:05;;;;;;;5.22;3.20;;;;;;;12.35;54.26;102319.25;5008455;28;20061;-80
2022/02/08 08:36:32;;;;;;;4.63;2.55;;;;;;;12.37;54.14;102325.47;5004388;28;20103;-80
2022/02/08 08:38:59;;;;;;;5.80;3.13;;;;;;;12.39;54.20;102323.56;5006513;28;20104;-80
2022/02/08 08:41:50;;;;;;;4.55;3.00;;;;;;;12.41;54.22;102321.66;5009449;28;20050;-80
2022/02/08 08:45:11;;;;;;;6.05;3.03;;;;;;;12.41;54.09;102316.19;5006325;28;20112;-80
2022/02/08 08:50:04;;;;;;;4.50;3.03;;;;;;;12.44;54.12;102319.63;5009676;28;20129;-80
2022/02/08 08:52:39;;;;;;;7.85;3.40;;;;;;;12.47;54.20;102327.66;5012560;28;20056;-80
2022/02/08 08:55:06;;;;;;;5.32;3.25;;;;;;;12.49;54.02;102328.47;5038401;28;20152;-81
2022/02/08 08:57:34;;;;;;;5.07;2.92;;;;;;;12.50;54.29;102324.78;5007999;28;20057;-80
2022/02/08 09:00:01;;;;;;;5.63;2.92;;;;;;;12.52;54.35;102333.72;5006767;28;20469;-80
2022/02/08 09:02:31;;;;;;;4.95;3.05;;;;;;;12.52;54.34;102320.13;5014524;28;20053;-80
2022/02/08 09:04:58;;;;;;;5.07;3.00;;;;;;;12.55;54.58;102335.44;5008975;28;20139;-80
2022/02/08 09:07:25;;;;;;;5.13;3.15;;;;;;;12.56;54.28;102332.63;5012478;28;20128;-80
2022/02/08 09:09:58;;;;;;;4.05;2.90;;;;;;;12.58;54.09;102340.72;5019065;28;20062;-79
2022/02/08 09:12:53;;;;;;;6.32;3.08;;;;;;;12.59;54.37;102342.50;5000291;28;20050;-80
2022/02/08 09:18:11;;;;;;;5.68;3.00;;;;;;;12.61;54.17;102343.28;5011968;28;20525;-80
2022/02/08 09:21:17;;;;;;;5.40;3.30;;;;;;;12.63;54.52;102349.53;5013091;28;20054;-80
2022/02/08 09:29:01;;;;;;;5.95;3.53;;;;;;;12.72;54.40;102359.09;5009260;28;20085;-81
2022/02/08 09:31:30;;;;;;;5.13;3.25;;;;;;;12.72;54.48;102346.34;5009885;28;20054;-79
2022/02/08 09:33:57;;;;;;;5.03;3.30;;;;;;;12.74;54.50;102355.31;5010826;28;20145;-80
2022/02/08 09:36:26;;;;;;;6.82;3.15;;;;;;;12.78;54.61;102356.91;5009951;28;20394;-80
2022/02/08 09:38:54;;;;;;;6.45;3.38;;;;;;;12.81;54.29;102364.06;5014082;28;20049;-81
2022/02/08 09:41:22;;;;;;;4.88;3.15;;;;;;;12.84;54.51;102374.81;5012450;28;20057;-81
2022/02/08 09:43:51;;;;;;;6.75;3.20;;;;;;;12.86;54.39;102367.41;5018905;28;20061;-80
2022/02/08 09:46:18;;;;;;;5.75;3.08;;;;;;;12.86;54.65;102381.94;5009723;28;20505;-80
2022/02/08 09:48:56;;;;;;;4.10;2.72;;;;;;;12.90;54.42;102369.03;5005577;28;20433;-80
2022/02/08 09:51:23;;;;;;;4.95;2.90;;;;;;;12.91;54.61;102368.06;5009804;28;20137;-79
2022/02/08 09:54:00;;;;;;;5.53;3.00;;;;;;;12.94;54.40;102363.31;5009694;28;20517;-80
2022/02/08 09:56:27;;;;;;;5.38;2.83;;;;;;;12.95;54.34;102365.09;5008262;28;20053;-80
2022/02/08 09:58:54;;;;;;;6.53;2.90;;;;;;;13.00;54.47;102375.78;5010721;28;20096;-80
2022/02/08 10:01:23;;;;;;;5.53;3.10;;;;;;;13.05;54.22;102379.13;5009844;28;20124;-80
2022/02/08 10:03:57;;;;;;;5.45;2.85;;;;;;;13.05;54.44;102381.84;5009587;28;20366;-80
2022/02/08 10:06:25;;;;;;;5.28;2.83;;;;;;;13.06;54.46;102382.75;5008449;28;20050;-81
2022/02/08 10:09:05;;;;;;;4.65;2.97;;;;;;;13.10;54.70;102376.13;5010657;28;20066;-81
2022/02/08 10:14:19;;;;;;;5.43;2.80;;;;;;;13.12;54.25;102383.28;5008084;28;20042;-80
2022/02/08 10:22:31;;;;;;;4.90;2.80;;;;;;;13.18;54.64;102382.09;5010729;28;20128;-80
2022/02/08 10:25:07;;;;;;;6.28;3.00;;;;;;;13.20;54.30;102372.00;5009771;28;20050;-80
2022/02/08 10:27:38;;;;;;;5.72;2.75;;;;;;;13.20;54.09;102374.72;5009843;28;20485;-80
2022/02/08 10:38:38;;;;;;;3.97;2.33;;;;;;;13.27;54.28;102363.41;5005733;28;20045;-80
2022/02/08 10:41:17;;;;;;;6.05;2.60;;;;;;;13.29;54.12;102369.66;5003892;28;20505;-80
2022/02/08 10:44:06;;;;;;;5.28;2.42;;;;;;;13.30;54.24;102363.25;5001805;28;20509;-80
2022/02/08 10:46:35;;;;;;;4.55;2.20;;;;;;;13.31;54.24;102367.75;4990484;28;20052;-79
2022/02/08 10:49:12;;;;;;;5.93;2.50;;;;;;;13.36;54.24;102364.75;4984953;28;20100;-81
2022/02/08 10:51:47;;;;;;;4.43;2.42;;;;;;;13.35;53.79;102362.97;4989401;28;20141;-81
2022/02/08 10:54:29;;;;;;;5.35;2.33;;;;;;;13.36;54.21;102364.75;4990834;28;20129;-81
2022/02/08 10:57:03;;;;;;;3.58;1.90;;;;;;;13.37;54.18;102368.38;5008441;28;20133;-82
2022/02/08 10:59:36;;;;;;;4.03;2.25;;;;;;;13.41;53.67;102356.34;5005240;28;20342;-80
2022/02/08 11:02:09;;;;;;;3.38;2.00;;;;;;;13.41;54.05;102359.06;4992789;28;20120;-81
2022/02/08 11:04:51;;;;;;;;;;;;;;;13.22;54.30;102353.72;4990053;28;20196;-80
2022/02/08 11:10:29;;;;;;;3.33;1.80;;;;;;;13.45;53.76;102352.44;5007485;28;20140;-81
2022/02/08 11:15:51;;;;;;;3.20;1.60;;;;;;;13.46;53.68;102349.66;5004422;28;20548;-79
2022/02/08 11:26:36;;;;;;;3.97;1.90;;;;;;;13.56;53.44;102344.56;4983837;28;20137;-80
2022/02/08 11:29:22;;;;;;;3.58;2.00;;;;;;;13.57;53.54;102339.03;4984565;28;20081;-80
2022/02/08 11:32:47;;;;;;;3.08;1.52;;;;;;;13.58;53.58;102338.06;4966820;28;20446;-81
2022/02/08 11:52:16;;;;;;;2.38;1.33;;;;;;;13.68;53.30;102332.94;4985783;28;20041;-81
2022/02/08 11:55:11;;;;;;;2.65;1.30;;;;;;;13.69;53.02;102330.13;4995959;28;20071;-79
2022/02/08 12:03:42;;;;;;;4.28;1.70;;;;;;;13.77;52.83;102329.69;5012013;28;20050;-79
2022/02/08 12:08:03;;;;;;;3.50;1.73;;;;;;;13.78;53.10;102330.59;5009317;28;20541;-76
2022/02/08 12:10:40;;;;;;;;;;;;;;;13.59;53.32;102325.28;5008870;28;20092;-77
2022/02/08 12:35:33;;;;;;;3.20;1.27;;;;;;;13.94;52.93;102328.72;5010796;28;20808;-78
2022/02/08 13:00:47;;;;;;;1.63;1.00;;;;;;;14.13;52.11;102317.63;5007793;28;20064;-79
2022/02/08 14:06:18;;;;;;;1.90;1.00;;;;;;;14.44;51.61;102314.88;5010322;28;20397;-79
2022/02/08 14:14:30;;;;;;;3.67;1.52;;;;;;;14.47;51.44;102306.50;5008521;28;20135;-80
2022/02/08 14:22:49;;;;;;;2.13;1.00;;;;;;;14.46;51.02;102313.81;5009797;28;20046;-78
2022/02/08 14:31:00;;;;;;;3.75;1.20;;;;;;;14.53;51.14;102310.72;5002979;28;20112;-80
2022/02/08 14:33:47;;;;;;;2.95;1.30;;;;;;;14.53;50.82;102314.34;5006421;28;20120;-80
2022/02/08 15:07:29;;;;;;;2.30;1.08;;;;;;;14.54;50.40;102326.16;4988202;28;20039;-79
2022/02/08 15:09:56;;;;;;;1.92;1.00;;;;;;;14.54;50.56;102327.03;4993249;28;20112;-81
2022/02/08 15:12:26;;;;;;;2.05;0.88;;;;;;;14.53;50.64;102328.00;5003823;28;20133;-79
2022/02/08 15:15:00;;;;;;;2.42;1.20;;;;;;;14.55;50.56;102328.78;5005445;28;20062;-80
2022/02/08 15:17:26;;;;;;;2.97;1.13;;;;;;;14.57;50.55;102331.44;5008225;28;20140;-79
2022/02/08 15:19:54;;;;;;;1.95;1.00;;;;;;;14.57;50.97;102325.97;5014835;28;20136;-79
2022/02/08 15:22:21;;;;;;;2.47;1.10;;;;;;;14.58;50.86;102327.72;5012251;28;20041;-79
2022/02/08 15:24:47;;;;;;;2.13;1.00;;;;;;;14.59;50.58;102326.75;5007472;28;20137;-77
2022/02/08 15:27:15;;;;;;;2.70;0.95;;;;;;;14.60;50.71;102323.91;5014018;28;20045;-77
2022/02/08 15:29:43;;;;;;;2.53;0.95;;;;;;;14.59;50.72;102324.88;5007151;28;20073;-79
2022/02/08 15:32:15;;;;;;;2.65;0.90;;;;;;;14.60;50.64;102318.44;5009273;28;20049;-80
2022/02/08 15:34:43;;;;;;;2.93;1.17;;;;;;;14.60;50.57;102323.91;5007737;28;20583;-78
2022/02/08 15:37:11;;;;;;;2.13;1.00;;;;;;;14.64;50.38;102314.56;5008962;28;20042;-78
2022/02/08 15:39:38;;;;;;;1.20;0.82;;;;;;;14.62;50.99;102311.03;5006357;28;20096;-79
2022/02/08 15:42:05;;;;;;;1.52;0.93;;;;;;;14.64;50.84;102314.56;5008039;28;20116;-80
2022/02/08 15:44:33;;;;;;;2.10;1.05;;;;;;;14.65;50.73;102329.13;5008310;28;20398;-78
2022/02/08 15:47:07;;;;;;;1.63;0.88;;;;;;;14.64;50.75;102328.25;5007389;28;20095;-80
2022/02/08 15:49:40;;;;;;;2.65;1.05;;;;;;;14.65;50.67;102331.84;5003572;28;20136;-79
2022/02/08 15:52:40;;;;;;;2.47;1.00;;;;;;;14.66;50.84;102328.16;5007999;28;20089;-79
2022/02/08 15:55:13;;;;;;;2.25;0.88;;;;;;;14.64;50.77;102328.25;5001994;28;20137;-79
2022/02/08 16:08:46;;;;;;;2.13;1.30;;;;;;;14.64;50.78;102332.81;5007774;28;20050;-89
2022/02/08 16:13:54;;;;;;;2.58;1.30;;;;;;;14.67;51.11;102330.78;5010379;28;20477;-87
2022/02/08 16:16:49;;;;;;;1.60;0.90;;;;;;;14.68;50.96;102334.38;5005596;28;20461;-84
2022/02/08 16:19:27;;;;;;;2.25;1.40;;;;;;;14.67;51.29;102329.88;5007390;28;20108;-79
2022/02/08 16:24:34;;;;;;;1.92;1.13;;;;;;;14.67;50.87;102330.78;5001562;28;20050;-79
2022/02/08 16:32:22;;;;;;;2.80;1.67;;;;;;;14.68;50.77;102338.00;5010825;28;20100;-90
2022/02/08 16:46:19;;;;;;;2.60;1.13;;;;;;;14.65;51.07;102351.00;4949524;28;20808;-77
2022/02/08 16:49:08;;;;;;;1.80;1.10;;;;;;;14.65;50.81;102356.47;4931635;29;20059;-89
2022/02/08 16:57:42;;;;;;;1.70;1.05;;;;;;;14.59;51.48;102348.59;4975993;28;20109;-80
2022/02/08 17:00:12;;;;;;;4.10;1.40;;;;;;;14.60;51.17;102355.84;5001268;28;20082;-84
2022/02/08 17:02:46;;;;;;;2.60;1.20;;;;;;;14.62;51.16;102360.25;4984932;28;20058;-78
2022/02/08 17:05:17;;;;;;;2.90;1.17;;;;;;;14.62;51.05;102356.63;4983420;28;20100;-82
2022/02/08 17:07:44;;;;;;;3.13;1.40;;;;;;;14.63;51.16;102364.75;4987110;28;20449;-79
2022/02/08 17:10:27;;;;;;;2.00;1.20;;;;;;;14.62;50.97;102356.63;4999703;28;20080;-81
2022/02/08 17:13:05;;;;;;;2.05;1.10;;;;;;;14.60;51.30;102364.03;5010551;28;20046;-81
2022/02/08 17:15:46;;;;;;;2.40;1.20;;;;;;;14.59;51.11;102365.88;5008340;28;20096;-81
2022/02/08 17:34:59;;;;;;;2.50;1.48;;;;;;;14.56;51.34;102374.28;5010488;28;20089;-80
2022/02/08 17:45:56;;;;;;;3.70;1.77;;;;;;;14.56;51.15;102387.97;5008544;28;20072;-79
2022/02/08 17:48:23;;;;;;;3.40;1.60;;;;;;;14.56;51.57;102389.81;5010345;28;20054;-78
2022/02/08 17:50:49;;;;;;;3.70;1.90;;;;;;;14.56;51.19;102387.06;5009670;28;20085;-79
2022/02/08 17:53:17;;;;;;;4.03;2.72;;;;;;;14.58;51.10;102385.09;5026748;28;20056;-79
2022/02/08 17:55:44;;;;;;;4.82;2.80;;;;;;;14.57;51.42;102395.19;5008755;28;20057;-79
2022/02/08 17:58:12;;;;;;;3.95;2.28;;;;;;;14.59;51.02;102392.34;5010942;28;20504;-79
2022/02/08 18:00:39;;;;;;;5.88;2.88;;;;;;;14.58;51.09;102399.66;5009230;28;20123;-79
2022/02/08 18:03:06;;;;;;;7.40;4.18;;;;;;;14.59;50.94;102398.69;5010046;28;20088;-80
2022/02/08 18:05:32;;;;;;;13.00;7.32;;;;;;;14.61;51.18;102413.16;5007122;28;20104;-78
2022/02/08 18:07:59;;;;;;;19.17;10.65;;;;;;;14.59;51.16;102400.53;5010946;28;20056;-79